Time;durP1;ratioP1;P1;durP2;ratioP2;P2;SDS_P1;SDS_P2;PMS_P1;PMS_P2;Temp;Humidity;BMP_temperature;BMP_pressure;BME280_temperature;BME280_humidity;BME280_pressure;Samples;Min_cycle;Max_cycle;Signal;HPM_P1;HPM_P2
2022/01/10 00:00:58;;;;;;;31.40;19.40;;;;;;;-0.89;98.69;101020.47;5045169;28;20041;-60
2022/01/10 00:03:24;;;;;;;31.88;19.88;;;;;;;-0.93;98.45;101023.63;5044277;28;20395;-60
2022/01/10 00:05:49;;;;;;;30.40;19.25;;;;;;;-0.97;98.45;101022.22;5043927;28;20044;-60
2022/01/10 00:08:15;;;;;;;27.95;18.23;;;;;;;-1.00;98.44;101038.72;5044293;28;20119;-60
2022/01/10 00:10:42;;;;;;;30.85;19.85;;;;;;;-1.00;98.58;101036.03;5043665;28;20044;-59
2022/01/10 00:13:07;;;;;;;35.22;20.42;;;;;;;-0.99;98.93;101045.81;5044061;28;20415;-60
2022/01/10 00:15:32;;;;;;;34.50;19.98;;;;;;;-0.97;99.02;101054.56;5044486;28;20021;-60
2022/01/10 00:17:58;;;;;;;30.58;19.95;;;;;;;-0.99;99.12;101052.03;5044596;28;20043;-59
2022/01/10 00:20:23;;;;;;;28.73;19.23;;;;;;;-1.01;98.84;101059.44;5043320;28;20120;-59
2022/01/10 00:22:50;;;;;;;29.05;20.08;;;;;;;-1.01;99.07;101063.94;5035811;28;20036;-60
2022/01/10 00:25:18;;;;;;;34.25;20.63;;;;;;;-1.02;98.65;101078.44;5024953;28;20033;-60
2022/01/10 00:27:45;;;;;;;31.05;20.13;;;;;;;-1.02;98.81;101067.66;5035487;28;20559;-60
2022/01/10 00:30:10;;;;;;;37.00;21.33;;;;;;;-1.05;98.90;101069.66;5043764;28;20122;-60
2022/01/10 00:32:38;;;;;;;33.38;20.13;;;;;;;-1.03;99.24;101065.97;5044366;28;20112;-60
2022/01/10 00:35:04;;;;;;;41.85;23.65;;;;;;;-0.99;99.43;101068.22;5043114;28;20130;-60
2022/01/10 00:37:29;;;;;;;34.33;20.13;;;;;;;-1.03;99.18;101069.50;5043948;28;20033;-60
2022/01/10 00:39:54;;;;;;;26.67;17.13;;;;;;;-1.11;98.57;101070.28;5043734;28;20416;-60
2022/01/10 00:42:19;;;;;;;32.25;18.15;;;;;;;-1.20;98.26;101064.94;5042968;28;20021;-59
2022/01/10 00:44:50;;;;;;;26.70;16.92;;;;;;;-1.24;98.37;101069.75;5043719;28;20048;-60
2022/01/10 00:47:16;;;;;;;30.65;19.17;;;;;;;-1.25;98.33;101075.31;5043909;28;20028;-60
2022/01/10 00:49:41;;;;;;;30.52;19.25;;;;;;;-1.26;98.71;101071.75;5044114;28;20029;-60
2022/01/10 00:52:06;;;;;;;33.13;20.17;;;;;;;-1.21;99.10;101082.94;5042597;28;20431;-59
2022/01/10 00:54:32;;;;;;;35.20;20.75;;;;;;;-1.21;99.18;101085.63;5044341;28;20110;-60
2022/01/10 00:56:57;;;;;;;35.10;21.25;;;;;;;-1.24;98.56;101082.38;5043599;28;20154;-60
2022/01/10 00:59:22;;;;;;;35.90;21.05;;;;;;;-1.24;98.63;101095.84;5042985;28;20033;-60
2022/01/10 01:01:47;;;;;;;34.33;19.65;;;;;;;-1.25;99.09;101102.25;5043471;28;20422;-59
2022/01/10 01:04:14;;;;;;;38.58;21.38;;;;;;;-1.25;98.89;101110.31;5043638;28;20029;-59
2022/01/10 01:06:40;;;;;;;40.63;21.90;;;;;;;-1.25;99.16;101118.41;5041942;28;20092;-60
2022/01/10 01:09:08;;;;;;;42.22;23.38;;;;;;;-1.21;99.48;101122.53;5043501;28;20108;-60
2022/01/10 01:14:25;;;;;;;39.58;24.75;;;;;;;-1.11;100.00;101126.03;5043400;28;20048;-60
2022/01/10 01:17:09;;;;;;;43.47;25.52;;;;;;;-1.10;100.00;101128.56;5042976;28;20032;-60
2022/01/10 01:25:02;;;;;;;36.58;20.77;;;;;;;-1.21;99.19;101144.91;5023743;28;20039;-61
2022/01/10 01:27:28;;;;;;;36.60;21.50;;;;;;;-1.21;99.58;101155.69;5023821;28;20033;-59
2022/01/10 01:29:53;;;;;;;35.80;23.40;;;;;;;-1.18;99.56;101154.53;5042643;28;20029;-59
2022/01/10 01:32:18;;;;;;;45.03;23.60;;;;;;;-1.18;99.68;101158.09;5043735;28;20033;-59
2022/01/10 01:34:43;;;;;;;33.92;22.60;;;;;;;-1.21;99.87;101154.84;5043482;28;20414;-59
2022/01/10 01:37:11;;;;;;;36.97;22.33;;;;;;;-1.25;99.42;101156.97;5041782;28;20073;-60
2022/01/10 01:39:36;;;;;;;46.03;25.67;;;;;;;-1.24;99.75;101174.84;5042119;28;20032;-59
2022/01/10 01:42:29;;;;;;;43.47;27.60;;;;;;;-1.22;100.00;101170.16;5041776;28;20017;-60
2022/01/10 01:44:48;;;;;;;46.13;27.58;;;;;;;-1.18;100.00;101174.25;5040012;28;20510;-59
2022/01/10 01:47:14;;;;;;;44.22;26.20;;;;;;;-1.17;100.00;101183.19;5042848;28;20108;-60
2022/01/10 01:49:39;;;;;;;41.72;24.83;;;;;;;-1.19;100.00;101186.03;5043716;28;20031;-59
2022/01/10 01:52:04;;;;;;;41.17;24.05;;;;;;;-1.22;100.00;101194.41;5042019;28;20083;-60
2022/01/10 01:54:30;;;;;;;40.85;23.95;;;;;;;-1.26;100.00;101201.09;5043321;28;20041;-60
2022/01/10 01:56:55;;;;;;;39.55;24.40;;;;;;;-1.29;100.00;101196.00;5042661;28;20597;-59
2022/01/10 01:59:20;;;;;;;45.85;25.50;;;;;;;-1.27;100.00;101212.00;5042973;28;20040;-59
2022/01/10 02:01:46;;;;;;;43.80;25.65;;;;;;;-1.29;100.00;101212.16;5043114;28;20820;-59
2022/01/10 02:04:11;;;;;;;47.55;26.17;;;;;;;-1.30;100.00;101215.84;5043049;28;20017;-59
2022/01/10 02:06:37;;;;;;;45.55;26.27;;;;;;;-1.31;100.00;101214.16;5041770;28;20037;-59
2022/01/10 02:09:03;;;;;;;42.85;26.00;;;;;;;-1.33;100.00;101200.81;5042180;28;20109;-61
2022/01/10 02:11:28;;;;;;;55.78;28.98;;;;;;;-1.27;100.00;101207.47;5042896;28;20025;-59
2022/01/10 02:13:53;;;;;;;52.40;28.27;;;;;;;-1.23;100.00;101210.72;5042746;28;20033;-60
2022/01/10 02:16:31;;;;;;;50.17;29.98;;;;;;;-1.19;100.00;101210.28;5042656;28;20025;-60
2022/01/10 02:18:56;;;;;;;51.95;30.40;;;;;;;-1.15;100.00;101222.47;5045526;28;20036;-60
2022/01/10 02:21:23;;;;;;;46.33;26.70;;;;;;;-1.15;100.00;101218.94;5045323;28;20613;-59
2022/01/10 02:23:48;;;;;;;40.10;24.05;;;;;;;-1.20;100.00;101222.06;5042706;28;20108;-59
2022/01/10 02:26:14;;;;;;;42.63;24.42;;;;;;;-1.22;100.00;101229.44;5046201;28;20112;-59
2022/01/10 02:28:40;;;;;;;42.13;23.92;;;;;;;-1.24;100.00;101236.81;5046328;28;20487;-60
2022/01/10 02:31:07;;;;;;;42.08;25.35;;;;;;;-1.19;100.00;101242.63;5046416;28;20032;-60
2022/01/10 02:33:32;;;;;;;45.97;26.45;;;;;;;-1.15;100.00;101249.44;5046927;28;20025;-60
2022/01/10 02:39:06;;;;;;;41.03;26.20;;;;;;;-1.14;100.00;101250.28;5024632;28;20041;-60
2022/01/10 02:41:34;;;;;;;44.13;25.45;;;;;;;-1.18;100.00;101262.34;5039523;28;20044;-60
2022/01/10 02:44:02;;;;;;;38.95;24.23;;;;;;;-1.25;100.00;101262.06;5046524;28;20017;-60
2022/01/10 02:46:31;;;;;;;38.17;24.08;;;;;;;-1.26;99.79;101268.47;5046937;28;20033;-59
2022/01/10 02:48:57;;;;;;;44.72;25.73;;;;;;;-1.24;99.92;101271.84;5046705;28;20021;-59
2022/01/10 02:51:23;;;;;;;40.97;26.55;;;;;;;-1.19;100.00;101271.44;5045112;28;20044;-60
2022/01/10 02:53:49;;;;;;;46.13;27.77;;;;;;;-1.09;100.00;101270.41;5046298;28;20060;-60
2022/01/10 02:56:14;;;;;;;50.70;29.23;;;;;;;-0.96;100.00;101280.91;5055410;28;20072;-59
2022/01/10 02:58:40;;;;;;;54.15;29.63;;;;;;;-0.87;100.00;101298.88;5051686;28;20102;-59
2022/01/10 03:01:06;;;;;;;50.42;30.50;;;;;;;-0.85;100.00;101302.31;5045575;28;20043;-59
2022/01/10 03:03:32;;;;;;;49.17;28.23;;;;;;;-0.82;100.00;101296.59;5045348;28;20025;-61
2022/01/10 03:05:59;;;;;;;57.70;28.70;;;;;;;-0.76;100.00;101302.41;5045778;28;20043;-59
2022/01/10 03:08:25;;;;;;;46.60;29.95;;;;;;;-0.69;100.00;101304.38;5045427;28;20064;-59
2022/01/10 03:10:51;;;;;;;58.45;29.70;;;;;;;-0.60;100.00;101314.31;5045257;28;20440;-60
2022/01/10 03:13:16;;;;;;;55.67;30.70;;;;;;;-0.51;100.00;101315.25;5044768;28;20148;-59
2022/01/10 03:15:41;;;;;;;52.28;29.92;;;;;;;-0.46;100.00;101323.75;5045630;28;20052;-59
2022/01/10 03:18:06;;;;;;;54.70;29.33;;;;;;;-0.43;100.00;101328.84;5045156;28;20027;-59
2022/01/10 03:20:32;;;;;;;51.55;29.45;;;;;;;-0.42;100.00;101322.47;5044811;28;20033;-61
2022/01/10 03:22:57;;;;;;;49.42;29.08;;;;;;;-0.37;100.00;101319.31;5045935;28;20418;-59
2022/01/10 03:25:22;;;;;;;49.72;30.40;;;;;;;-0.34;100.00;101325.28;5044714;28;20028;-60
2022/01/10 03:27:48;;;;;;;58.60;29.83;;;;;;;-0.31;100.00;101337.63;5045859;28;20056;-59
2022/01/10 03:30:15;;;;;;;43.72;27.77;;;;;;;-0.30;100.00;101331.25;5045208;28;20055;-60
2022/01/10 03:32:41;;;;;;;47.70;29.63;;;;;;;-0.27;100.00;101341.72;5045531;28;20036;-59
2022/01/10 03:35:07;;;;;;;51.95;29.48;;;;;;;-0.26;100.00;101338.00;5044184;28;20059;-59
2022/01/10 03:37:33;;;;;;;56.17;31.17;;;;;;;-0.23;100.00;101340.44;5044854;28;20480;-60
2022/01/10 03:39:58;;;;;;;53.50;30.00;;;;;;;-0.19;100.00;101343.69;5043534;28;20039;-59
2022/01/10 03:42:23;;;;;;;54.67;30.27;;;;;;;-0.16;100.00;101355.03;5044478;28;20040;-59
2022/01/10 03:44:49;;;;;;;54.42;29.98;;;;;;;-0.11;100.00;101368.06;5045263;28;20036;-59
2022/01/10 03:47:16;;;;;;;52.17;32.13;;;;;;;-0.08;100.00;101365.09;5044649;28;20033;-59
2022/01/10 03:49:42;;;;;;;55.03;29.25;;;;;;;-0.07;100.00;101367.63;5044091;28;20025;-59
2022/01/10 03:52:07;;;;;;;58.13;29.85;;;;;;;-0.04;100.00;101366.50;5044769;28;20037;-60
2022/01/10 03:54:32;;;;;;;52.47;29.50;;;;;;;-0.03;100.00;101377.16;5045330;28;20017;-61
2022/01/10 03:56:57;;;;;;;47.10;28.60;;;;;;;-0.05;100.00;101381.84;5044681;28;20399;-59
2022/01/10 03:59:23;;;;;;;52.85;29.13;;;;;;;-0.08;100.00;101392.94;5044754;28;20035;-59
2022/01/10 04:01:50;;;;;;;45.80;28.85;;;;;;;-0.09;100.00;101391.25;5044252;28;20081;-59
2022/01/10 04:04:17;;;;;;;54.28;29.00;;;;;;;-0.07;100.00;101401.88;5044672;28;20381;-60
2022/01/10 04:06:42;;;;;;;49.50;28.67;;;;;;;-0.05;100.00;101400.75;5043603;28;20110;-59
2022/01/10 04:09:08;;;;;;;52.88;29.48;;;;;;;-0.05;100.00;101398.06;5044560;28;20053;-59
2022/01/10 04:11:33;;;;;;;52.55;30.08;;;;;;;-0.03;100.00;101400.59;5044568;28;20029;-60
2022/01/10 04:13:58;;;;;;;57.75;30.83;;;;;;;-0.03;100.00;101401.44;5044932;28;20491;-59
2022/01/10 04:16:23;;;;;;;49.45;28.75;;;;;;;-0.03;100.00;101411.41;5042512;28;20025;-59
2022/01/10 04:18:49;;;;;;;55.10;29.42;;;;;;;-0.05;100.00;101407.97;5044835;28;20017;-59
2022/01/10 04:21:14;;;;;;;53.05;29.33;;;;;;;-0.05;100.00;101422.34;5043104;28;20640;-59
2022/01/10 04:23:39;;;;;;;48.90;29.23;;;;;;;-0.02;100.00;101418.50;5041608;28;20041;-60
2022/01/10 04:26:04;;;;;;;49.45;29.25;;;;;;;0.00;100.00;101416.53;5043450;28;20033;-60
2022/01/10 04:28:30;;;;;;;52.40;28.77;;;;;;;0.05;100.00;101421.44;5044863;28;20032;-60
2022/01/10 04:30:55;;;;;;;55.35;30.08;;;;;;;0.07;100.00;101422.16;5043945;28;20032;-60
2022/01/10 04:33:21;;;;;;;50.80;29.58;;;;;;;0.11;100.00;101428.97;5043169;28;20091;-59
2022/01/10 04:35:48;;;;;;;53.65;29.52;;;;;;;0.14;100.00;101429.50;5042316;28;20040;-59
2022/01/10 04:38:14;;;;;;;54.88;29.85;;;;;;;0.16;100.00;101442.88;5044279;28;20032;-59
2022/01/10 04:40:39;;;;;;;59.17;29.15;;;;;;;0.21;100.00;101459.50;5042947;28;20033;-60
2022/01/10 04:43:05;;;;;;;50.08;28.48;;;;;;;0.18;100.00;101459.78;5043804;28;20513;-60
2022/01/10 04:45:30;;;;;;;54.00;28.40;;;;;;;0.15;100.00;101474.44;5043441;28;20033;-59
2022/01/10 04:47:55;;;;;;;51.97;29.13;;;;;;;0.15;100.00;101470.88;5044178;28;20021;-59
2022/01/10 04:52:47;;;;;;;52.57;28.83;;;;;;;0.21;100.00;101478.41;5043575;28;20118;-59
2022/01/10 04:55:13;;;;;;;51.30;29.35;;;;;;;0.23;100.00;101485.34;5044023;28;20808;-59
2022/01/10 04:57:39;;;;;;;49.92;29.20;;;;;;;0.29;100.00;101485.75;5042625;28;20029;-59
2022/01/10 05:00:07;;;;;;;50.42;28.08;;;;;;;0.32;100.00;101491.72;5043583;28;20025;-60
2022/01/10 05:02:32;;;;;;;;;;;;;;;0.39;100.00;101502.78;5043752;28;20037;-59
2022/01/10 05:04:57;;;;;;;51.80;28.58;;;;;;;0.38;100.00;101503.78;5043513;28;19917;-60
2022/01/10 05:07:23;;;;;;;52.25;29.33;;;;;;;0.36;100.00;101513.91;5043034;28;20041;-59
2022/01/10 05:09:48;;;;;;;46.35;28.50;;;;;;;0.35;100.00;101514.88;5043831;28;20047;-60
2022/01/10 05:12:13;;;;;;;50.90;28.85;;;;;;;0.37;100.00;101523.72;5042879;28;20029;-59
2022/01/10 05:14:39;;;;;;;53.67;27.88;;;;;;;0.37;100.00;101518.31;5042854;28;20056;-60
2022/01/10 05:17:05;;;;;;;52.83;28.98;;;;;;;0.38;100.00;101525.41;5043635;28;20116;-59
2022/01/10 05:19:30;;;;;;;51.83;30.08;;;;;;;0.39;100.00;101541.47;5043213;28;20104;-59
2022/01/10 05:21:55;;;;;;;48.80;29.50;;;;;;;0.42;100.00;101535.78;5043331;28;20013;-59
2022/01/10 05:24:21;;;;;;;48.40;29.73;;;;;;;0.43;100.00;101542.03;5043024;28;20040;-59
2022/01/10 05:26:46;;;;;;;50.42;29.27;;;;;;;0.46;100.00;101557.97;5043187;28;20082;-59
2022/01/10 05:29:11;;;;;;;54.85;29.33;;;;;;;0.47;100.00;101540.75;5042970;28;20119;-59
2022/01/10 05:31:36;;;;;;;51.88;29.42;;;;;;;0.49;100.00;101552.25;5043457;28;20025;-60
2022/01/10 05:34:02;;;;;;;47.20;29.75;;;;;;;0.50;100.00;101557.50;5042512;28;20503;-60
2022/01/10 05:36:28;;;;;;;50.40;27.85;;;;;;;0.51;100.00;101556.50;5042824;28;20122;-59
2022/01/10 05:38:54;;;;;;;49.80;28.23;;;;;;;0.54;100.00;101568.00;5041968;28;20052;-59
2022/01/10 05:41:21;;;;;;;48.60;28.30;;;;;;;0.54;100.00;101576.97;5041631;28;20010;-59
2022/01/10 05:43:47;;;;;;;49.67;29.08;;;;;;;0.55;100.00;101583.22;5042232;28;20100;-59
2022/01/10 05:46:15;;;;;;;52.83;28.83;;;;;;;0.56;100.00;101595.72;5042508;28;20120;-59
2022/01/10 05:48:46;;;;;;;45.85;28.30;;;;;;;0.56;100.00;101598.44;5041923;28;20585;-59
2022/01/10 05:51:11;;;;;;;46.33;27.73;;;;;;;0.58;100.00;101596.47;5042199;28;20029;-59
2022/01/10 05:53:36;;;;;;;48.53;27.60;;;;;;;0.56;100.00;101602.03;5046275;28;20029;-60
2022/01/10 05:56:02;;;;;;;47.30;26.90;;;;;;;0.51;100.00;101607.88;5045909;28;20065;-60
2022/01/10 05:58:27;;;;;;;39.90;27.02;;;;;;;0.48;100.00;101604.59;5047972;28;20074;-59
2022/01/10 06:00:53;;;;;;;52.45;30.10;;;;;;;0.47;100.00;101605.59;5046882;28;20036;-60
2022/01/10 06:03:18;;;;;;;51.47;27.88;;;;;;;0.45;100.00;101616.53;5046479;28;20052;-59
2022/01/10 06:05:43;;;;;;;48.00;29.20;;;;;;;0.46;100.00;101612.00;5044927;28;20108;-59
2022/01/10 06:08:09;;;;;;;51.55;28.70;;;;;;;0.44;100.00;101614.84;5047012;28;20036;-59
2022/01/10 06:10:36;;;;;;;48.95;28.52;;;;;;;0.44;100.00;101627.50;5046370;28;20025;-60
2022/01/10 06:13:01;;;;;;;51.58;28.50;;;;;;;0.43;100.00;101618.53;5047172;28;20025;-61
2022/01/10 06:15:26;;;;;;;51.05;29.33;;;;;;;0.45;100.00;101621.94;5046372;28;20078;-60
2022/01/10 06:17:52;;;;;;;55.42;29.38;;;;;;;0.48;100.00;101624.34;5046790;28;20029;-59
2022/01/10 06:20:17;;;;;;;45.50;30.05;;;;;;;0.51;100.00;101631.34;5045200;28;20471;-59
2022/01/10 06:22:44;;;;;;;57.20;30.02;;;;;;;0.54;100.00;101643.69;5045690;28;20036;-59
2022/01/10 06:25:14;;;;;;;49.03;28.55;;;;;;;0.55;100.00;101653.50;5043226;28;20029;-60
2022/01/10 06:27:40;;;;;;;48.67;28.17;;;;;;;0.57;100.00;101654.22;5045164;28;20122;-59
2022/01/10 06:30:06;;;;;;;50.33;30.67;;;;;;;0.60;100.00;101665.56;5045501;28;20024;-60
2022/01/10 06:32:31;;;;;;;51.72;29.23;;;;;;;0.63;100.00;101672.56;5027169;28;20029;-61
2022/01/10 06:34:57;;;;;;;56.45;31.15;;;;;;;0.66;100.00;101677.66;5032274;28;20063;-60
2022/01/10 06:37:23;;;;;;;46.83;28.90;;;;;;;0.67;100.00;101677.53;5046143;28;20049;-60
2022/01/10 06:39:48;;;;;;;53.40;30.10;;;;;;;0.70;100.00;101684.47;5046514;28;20376;-59
2022/01/10 06:42:14;;;;;;;50.40;29.30;;;;;;;0.74;100.00;101685.91;5046066;28;20032;-59
2022/01/10 06:44:39;;;;;;;54.17;29.98;;;;;;;0.75;100.00;101688.44;5046098;28;20108;-60
2022/01/10 06:47:04;;;;;;;47.05;28.27;;;;;;;0.80;100.00;101695.28;5045870;28;20479;-60
2022/01/10 06:49:30;;;;;;;43.25;26.58;;;;;;;0.82;100.00;101694.16;5046011;28;20029;-59
2022/01/10 06:51:55;;;;;;;41.95;25.23;;;;;;;0.85;98.84;101695.69;5046200;28;20035;-60
2022/01/10 06:54:21;;;;;;;40.85;24.42;;;;;;;0.70;98.63;101698.00;5046441;28;20595;-59
2022/01/10 06:56:46;;;;;;;38.30;24.95;;;;;;;0.62;99.16;101711.41;5044913;28;20480;-59
2022/01/10 06:59:11;;;;;;;45.15;25.70;;;;;;;0.56;99.42;101714.66;5046558;28;20516;-60
2022/01/10 07:01:37;;;;;;;38.92;27.17;;;;;;;0.53;99.78;101726.63;5046344;28;20068;-60
2022/01/10 07:04:02;;;;;;;44.03;27.08;;;;;;;0.50;99.84;101727.75;5043088;28;20031;-61
2022/01/10 07:06:28;;;;;;;50.63;29.27;;;;;;;0.49;99.90;101731.47;5045932;28;20025;-59
2022/01/10 07:08:53;;;;;;;49.97;27.17;;;;;;;0.49;100.00;101741.41;5045054;28;20029;-61
2022/01/10 07:11:18;;;;;;;54.72;31.80;;;;;;;0.52;100.00;101736.59;5045099;28;20086;-60
2022/01/10 07:13:43;;;;;;;60.25;31.95;;;;;;;0.56;100.00;101742.56;5045518;28;20021;-60
2022/01/10 07:16:09;;;;;;;56.20;30.95;;;;;;;0.58;100.00;101745.97;5045578;28;20033;-60
2022/01/10 07:18:34;;;;;;;53.10;30.95;;;;;;;0.61;100.00;101751.09;5045603;28;20036;-60
2022/01/10 07:20:59;;;;;;;58.42;31.63;;;;;;;0.63;100.00;101765.31;5044502;28;20029;-59
2022/01/10 07:23:25;;;;;;;52.90;30.67;;;;;;;0.65;100.00;101768.72;5045306;28;20093;-59
2022/01/10 07:25:51;;;;;;;48.72;30.05;;;;;;;0.68;100.00;101778.41;5045436;28;20025;-59
2022/01/10 07:28:16;;;;;;;51.97;30.45;;;;;;;0.61;100.00;101786.25;5045192;28;20025;-60
2022/01/10 07:30:42;;;;;;;43.45;28.08;;;;;;;0.59;100.00;101782.81;5045382;28;20052;-60
2022/01/10 07:33:07;;;;;;;50.90;28.92;;;;;;;0.54;100.00;101787.78;5045426;28;20112;-60
2022/01/10 07:35:33;;;;;;;50.10;29.58;;;;;;;0.54;100.00;101798.59;5044084;28;20033;-59
2022/01/10 07:37:58;;;;;;;56.42;31.00;;;;;;;0.55;100.00;101792.19;5045643;28;20049;-60
2022/01/10 07:40:24;;;;;;;49.90;30.67;;;;;;;0.57;100.00;101805.59;5044207;28;20095;-60
2022/01/10 07:42:49;;;;;;;56.92;30.60;;;;;;;0.58;100.00;101815.41;5045300;28;20033;-60
2022/01/10 07:45:15;;;;;;;54.35;30.55;;;;;;;0.60;100.00;101813.41;5044944;28;20109;-60
2022/01/10 07:47:40;;;;;;;56.17;30.33;;;;;;;0.59;100.00;101828.75;5045722;28;20032;-60
2022/01/10 07:50:06;;;;;;;54.70;31.00;;;;;;;0.58;100.00;101832.47;5044201;28;20029;-60
2022/01/10 07:52:32;;;;;;;46.15;29.23;;;;;;;0.56;100.00;101837.19;5044911;28;20468;-61
2022/01/10 07:54:57;;;;;;;48.65;28.42;;;;;;;0.54;100.00;101838.28;5045338;28;20104;-60
2022/01/10 07:57:23;;;;;;;53.22;30.75;;;;;;;0.55;100.00;101842.69;5044767;28;20567;-60
2022/01/10 07:59:48;;;;;;;56.78;32.67;;;;;;;0.52;100.00;101844.69;5044930;28;20021;-60
2022/01/10 08:02:14;;;;;;;59.42;31.73;;;;;;;0.54;100.00;101846.41;5044489;28;20017;-60
2022/01/10 08:04:40;;;;;;;55.70;30.63;;;;;;;0.56;100.00;101850.69;5044054;28;20036;-60
2022/01/10 08:07:05;;;;;;;63.85;32.35;;;;;;;0.59;100.00;101852.25;5044404;28;20028;-60
2022/01/10 08:09:30;;;;;;;50.03;30.77;;;;;;;0.63;100.00;101868.03;5044685;28;20033;-60
2022/01/10 08:11:59;;;;;;;54.53;30.95;;;;;;;0.69;100.00;101874.72;5044370;28;20099;-60
2022/01/10 08:14:26;;;;;;;51.38;30.77;;;;;;;0.82;100.00;101879.88;5043920;28;20021;-60
2022/01/10 08:16:51;;;;;;;54.65;31.65;;;;;;;1.01;100.00;101878.03;5035752;28;20110;-60
2022/01/10 08:19:17;;;;;;;49.67;31.60;;;;;;;1.21;99.86;101889.66;5031388;28;20029;-60
2022/01/10 08:21:42;;;;;;;54.53;31.25;;;;;;;1.32;99.44;101895.91;5030893;28;20064;-60
2022/01/10 08:24:07;;;;;;;52.75;31.42;;;;;;;1.31;98.70;101895.06;5038517;28;20040;-60
2022/01/10 08:26:32;;;;;;;49.95;31.15;;;;;;;1.30;98.59;101904.19;5042424;28;20578;-60
2022/01/10 08:28:58;;;;;;;49.25;30.98;;;;;;;1.26;98.36;101905.47;5029429;28;20037;-60
2022/01/10 08:31:23;;;;;;;53.30;33.80;;;;;;;1.22;98.60;101909.47;5037993;28;20032;-59
2022/01/10 08:33:49;;;;;;;59.90;31.90;;;;;;;1.17;98.51;101914.47;5043299;28;20020;-60
2022/01/10 08:36:14;;;;;;;52.75;32.33;;;;;;;1.17;98.46;101928.00;5032212;28;20510;-60
2022/01/10 08:38:41;;;;;;;50.75;30.77;;;;;;;1.19;98.37;101939.53;5043547;28;20037;-60
2022/01/10 08:41:06;;;;;;;51.72;31.15;;;;;;;1.22;98.64;101944.66;5039611;28;20021;-60
2022/01/10 08:43:31;;;;;;;48.65;31.48;;;;;;;1.28;98.21;101947.63;5033961;28;20495;-61
2022/01/10 08:45:56;;;;;;;56.38;32.40;;;;;;;1.30;98.39;101944.78;5033897;28;20059;-59
2022/01/10 08:48:22;;;;;;;50.80;29.92;;;;;;;1.30;98.03;101959.16;5033848;28;20569;-60
2022/01/10 08:50:47;;;;;;;54.25;32.58;;;;;;;1.39;98.25;101970.13;5038748;28;20149;-60
2022/01/10 08:53:13;;;;;;;48.47;31.00;;;;;;;1.41;98.06;101968.97;5035777;28;22080;-60
2022/01/10 08:55:38;;;;;;;52.35;31.45;;;;;;;1.48;97.71;101978.25;5028749;28;20765;-60
2022/01/10 08:58:03;;;;;;;55.05;33.28;;;;;;;1.58;97.68;101969.28;5026813;28;20104;-60
2022/01/10 09:00:29;;;;;;;48.60;30.80;;;;;;;1.61;97.39;101988.78;5042813;28;20359;-59
2022/01/10 09:02:55;;;;;;;50.53;30.30;;;;;;;1.60;97.62;101989.78;5034505;28;20064;-60
2022/01/10 09:05:20;;;;;;;50.65;30.83;;;;;;;1.64;97.36;101988.50;5028040;28;20021;-60
2022/01/10 09:07:48;;;;;;;51.67;30.45;;;;;;;1.68;97.11;101995.34;5038212;28;20513;-60
2022/01/10 09:10:13;;;;;;;47.10;30.83;;;;;;;1.66;97.00;101994.63;5029188;28;20167;-59
2022/01/10 09:12:39;;;;;;;47.85;28.98;;;;;;;1.65;96.69;102000.19;5038101;28;20111;-60
2022/01/10 09:15:06;;;;;;;47.80;29.75;;;;;;;1.64;97.02;102004.75;5040006;28;20036;-60
2022/01/10 09:17:32;;;;;;;45.10;29.27;;;;;;;1.64;96.44;102010.16;5038038;28;20107;-60
2022/01/10 09:19:57;;;;;;;45.72;28.67;;;;;;;1.61;96.42;102010.44;5027673;28;20133;-60
2022/01/10 09:22:23;;;;;;;42.78;29.33;;;;;;;1.62;97.07;102012.13;5030386;28;20032;-60
2022/01/10 09:24:48;;;;;;;44.00;27.90;;;;;;;1.65;97.13;102009.16;5030314;28;20021;-60
2022/01/10 09:27:14;;;;;;;46.75;27.48;;;;;;;1.66;96.67;102013.56;5034447;28;20033;-60
2022/01/10 09:29:40;;;;;;;42.72;28.85;;;;;;;1.68;97.00;102018.88;5032530;28;20395;-60
2022/01/10 09:32:06;;;;;;;49.72;27.17;;;;;;;1.70;96.64;102014.16;5030473;28;20052;-61
2022/01/10 09:34:32;;;;;;;42.22;26.90;;;;;;;1.69;96.42;102023.28;5035714;28;20131;-61
2022/01/10 09:36:57;;;;;;;41.40;26.50;;;;;;;1.70;96.23;102022.28;5034026;28;20566;-60
2022/01/10 09:39:23;;;;;;;43.08;26.60;;;;;;;1.76;96.15;102021.69;5038360;28;20514;-60
2022/01/10 09:41:51;;;;;;;43.15;25.48;;;;;;;1.82;95.94;102029.22;5035201;28;20021;-60
2022/01/10 09:44:17;;;;;;;42.72;26.15;;;;;;;1.99;96.38;102033.06;5027150;28;20384;-60
2022/01/10 09:46:47;;;;;;;37.22;25.35;;;;;;;2.12;95.99;102035.44;5031488;28;20033;-60
2022/01/10 09:49:13;;;;;;;39.67;25.30;;;;;;;2.22;95.13;102037.13;5034220;28;20029;-60
2022/01/10 09:51:38;;;;;;;38.75;23.83;;;;;;;2.38;94.19;102041.09;5037889;28;20032;-60
2022/01/10 09:54:04;;;;;;;42.20;25.23;;;;;;;2.59;93.76;102045.31;5046787;28;20154;-60
2022/01/10 09:56:30;;;;;;;41.97;24.52;;;;;;;2.67;92.29;102046.41;5051317;28;20040;-60
2022/01/10 09:58:57;;;;;;;36.33;24.77;;;;;;;2.71;92.17;102058.66;5034677;28;20030;-60
2022/01/10 10:01:24;;;;;;;37.92;23.80;;;;;;;2.81;92.26;102063.03;5046814;28;20529;-60
2022/01/10 10:03:51;;;;;;;35.65;22.70;;;;;;;2.90;91.36;102065.88;5033258;28;20032;-60
2022/01/10 10:06:18;;;;;;;41.25;23.52;;;;;;;3.02;90.90;102079.06;5041621;28;20036;-61
2022/01/10 10:08:44;;;;;;;35.83;23.20;;;;;;;3.01;90.35;102081.94;5042952;28;20033;-61
2022/01/10 10:11:10;;;;;;;32.15;21.85;;;;;;;3.06;90.34;102085.91;5042597;28;20070;-61
2022/01/10 10:13:56;;;;;;;35.45;22.33;;;;;;;3.15;89.93;102091.44;5042555;28;20043;-61
2022/01/10 10:16:22;;;;;;;32.38;22.48;;;;;;;3.24;88.69;102088.66;5042627;28;20040;-60
2022/01/10 10:18:48;;;;;;;38.47;22.90;;;;;;;3.38;88.74;102103.56;5042113;28;20017;-61
2022/01/10 10:21:15;;;;;;;36.42;22.92;;;;;;;3.38;88.12;102096.28;5041664;28;20094;-61
2022/01/10 10:23:46;;;;;;;37.65;23.58;;;;;;;3.50;88.67;102107.78;5042195;28;20024;-61
2022/01/10 10:26:15;;;;;;;36.05;22.90;;;;;;;3.80;88.19;102109.28;5041941;28;20021;-61
2022/01/10 10:28:40;;;;;;;36.65;22.38;;;;;;;4.06;86.49;102113.94;5042985;28;20029;-61
2022/01/10 10:31:05;;;;;;;34.90;23.73;;;;;;;4.23;84.93;102112.19;5041753;28;20017;-61
2022/01/10 10:33:31;;;;;;;37.53;23.58;;;;;;;4.31;84.92;102115.84;5022985;28;20487;-61
2022/01/10 10:36:07;;;;;;;35.67;23.77;;;;;;;5.15;82.01;102127.88;5023223;28;20041;-61
2022/01/10 10:38:32;;;;;;;35.40;22.63;;;;;;;5.29;78.81;102115.50;5022993;28;20104;-61
2022/01/10 10:41:03;;;;;;;34.92;22.98;;;;;;;5.26;80.04;102132.16;5045222;28;20427;-61
2022/01/10 10:43:32;;;;;;;36.60;22.45;;;;;;;5.85;77.08;102128.41;5047095;28;20483;-60
2022/01/10 10:46:01;;;;;;;34.47;22.67;;;;;;;5.93;76.48;102127.59;5046337;28;20025;-60
2022/01/10 10:48:27;;;;;;;32.70;21.45;;;;;;;7.17;73.82;102127.25;5043654;28;20032;-60
2022/01/10 10:50:54;;;;;;;32.90;20.85;;;;;;;8.63;67.59;102127.31;5042943;28;20029;-60
2022/01/10 10:53:19;;;;;;;29.90;19.33;;;;;;;9.44;65.07;102125.50;5046277;28;20050;-60
2022/01/10 10:55:45;;;;;;;28.80;18.80;;;;;;;9.97;61.53;102120.59;5045407;28;20025;-60
2022/01/10 10:58:12;;;;;;;28.48;18.83;;;;;;;10.47;60.85;102124.25;5045875;28;20328;-60
2022/01/10 11:00:38;;;;;;;30.27;19.58;;;;;;;11.38;58.98;102128.63;5045763;28;20021;-60
2022/01/10 11:03:04;;;;;;;30.38;18.45;;;;;;;11.72;55.11;102140.63;5045443;28;20029;-61
2022/01/10 11:05:30;;;;;;;27.88;17.95;;;;;;;11.81;55.10;102142.16;5045616;28;20062;-60
2022/01/10 11:07:56;;;;;;;26.95;18.50;;;;;;;11.78;54.69;102147.22;5034556;28;20040;-60
2022/01/10 11:10:22;;;;;;;31.17;18.90;;;;;;;11.90;54.58;102151.09;5027886;28;20808;-60
2022/01/10 11:12:55;;;;;;;25.98;17.77;;;;;;;12.59;55.63;102156.25;5027721;28;20018;-60
2022/01/10 11:15:22;;;;;;;29.42;19.10;;;;;;;13.21;51.91;102154.06;5045871;28;20718;-60
2022/01/10 11:17:47;;;;;;;28.70;17.77;;;;;;;13.91;49.84;102149.56;5045655;28;20402;-58